Time;durP1;ratioP1;P1;durP2;ratioP2;P2;SDS_P1;SDS_P2;PMS_P1;PMS_P2;Temp;Humidity;BMP_temperature;BMP_pressure;BME280_temperature;BME280_humidity;BME280_pressure;Samples;Min_cycle;Max_cycle;Signal;HPM_P1;HPM_P2
2022/07/28 00:03:28;;;;;;;1.20;1.10;;;20.70;57.70;;;;;;4779713;30;20196;-89
2022/07/28 00:06:04;;;;;;;1.10;1.00;;;20.80;57.80;;;;;;4771611;29;20184;-90
2022/07/28 00:09:23;;;;;;;1.20;1.10;;;20.70;57.70;;;;;;4751881;30;20597;-89
2022/07/28 00:12:20;;;;;;;1.20;1.10;;;20.70;57.70;;;;;;4753088;29;20278;-90
2022/07/28 00:15:28;;;;;;;1.30;1.20;;;20.80;57.90;;;;;;4780165;29;20188;-89
2022/07/28 00:18:46;;;;;;;1.20;1.10;;;20.70;57.80;;;;;;4806248;29;20640;-90
2022/07/28 00:21:23;;;;;;;0.90;0.90;;;20.70;57.80;;;;;;4835572;29;20174;-90
2022/07/28 00:24:13;;;;;;;;;;;;;;;;;;;;;
2022/07/28 00:27:18;;;;;;;1.20;1.10;;;20.80;57.80;;;;;;4765030;30;20388;-90
2022/07/28 00:30:35;;;;;;;;;;;;;;;;;;;;;
2022/07/28 00:33:33;;;;;;;0.80;0.80;;;20.70;57.70;;;;;;4729255;30;20263;-90
2022/07/28 00:36:07;;;;;;;1.10;1.10;;;20.70;57.70;;;;;;4792918;30;20216;-90
2022/07/28 00:38:43;;;;;;;1.02;0.93;;;20.70;57.70;;;;;;4796026;29;20218;-89
2022/07/28 00:41:43;;;;;;;;;;;;;;;;;;;;;
2022/07/28 00:44:57;;;;;;;1.27;1.17;;;20.70;57.70;;;;;;4841967;29;20289;-89
2022/07/28 00:48:00;;;;;;;1.45;1.10;;;20.70;57.70;;;;;;4844274;29;20688;-90
2022/07/28 00:50:53;;;;;;;1.33;1.20;;;20.70;57.80;;;;;;4853566;29;20323;-91
2022/07/28 00:53:44;;;;;;;1.23;1.13;;;20.70;57.70;;;;;;4852590;29;20185;-89
2022/07/28 00:56:34;;;;;;;;;;;;;;;;;;;;;
2022/07/28 00:59:07;;;;;;;1.15;1.05;;;20.70;57.80;;;;;;4734129;30;20289;-89
2022/07/28 01:01:58;;;;;;;;;;;;;;;;;;;;;
2022/07/28 01:05:17;;;;;;;1.10;1.10;;;20.70;57.80;;;;;;4785942;30;20251;-89
2022/07/28 01:08:13;;;;;;;1.67;1.05;;;20.70;57.80;;;;;;4745148;30;20205;-90
2022/07/28 01:11:05;;;;;;;1.45;1.05;;;20.70;57.80;;;;;;4745944;30;20299;-89
2022/07/28 01:13:56;;;;;;;1.25;1.15;;;20.70;57.80;;;;;;4763432;30;20203;-89
2022/07/28 01:17:09;;;;;;;;;;;;;;;;;;;;;
2022/07/28 01:20:04;;;;;;;;;;;;;;;;;;;;;
2022/07/28 01:23:13;;;;;;;1.27;1.17;;;20.70;57.80;;;;;;4744334;30;20256;-89
2022/07/28 01:26:31;;;;;;;;;;;;;;;;;;;;;
2022/07/28 01:29:23;;;;;;;1.35;1.25;;;20.70;57.80;;;;;;4737703;30;20269;-90
2022/07/28 01:32:16;;;;;;;;;;;;;;;;;;;;;
2022/07/28 01:35:11;;;;;;;1.02;0.98;;;20.70;57.80;;;;;;4785067;29;20269;-89
2022/07/28 01:38:14;;;;;;;;;;;;;;;;;;;;;
2022/07/28 01:41:05;;;;;;;1.20;1.10;;;20.70;57.80;;;;;;4747866;30;20260;-89
2022/07/28 01:47:17;;;;;;;;;;;;;;;;;;;;;
2022/07/28 01:50:15;;;;;;;1.08;1.08;;;20.70;57.90;;;;;;4816780;29;20282;-90
2022/07/28 01:53:12;;;;;;;;;;;;;;;;;;;;;
2022/07/28 01:56:11;;;;;;;1.30;1.20;;;20.70;57.90;;;;;;4840717;29;20311;-89
2022/07/28 01:59:13;;;;;;;;;;;;;;;;;;;;;
2022/07/28 02:02:07;;;;;;;1.20;1.10;;;20.70;57.80;;;;;;4898929;29;20278;-89
2022/07/28 02:04:54;;;;;;;;;;;;;;;;;;;;;
2022/07/28 02:07:26;;;;;;;1.25;1.20;;;20.70;57.80;;;;;;4874664;29;20274;-89
2022/07/28 02:10:34;;;;;;;;;;;;;;;;;;;;;
2022/07/28 02:13:17;;;;;;;1.20;1.10;;;20.70;57.80;;;;;;4831931;29;20224;-89
2022/07/28 02:16:13;;;;;;;0.90;0.90;;;20.70;57.80;;;;;;4849779;29;20642;-89
2022/07/28 02:19:10;;;;;;;1.13;1.02;;;20.70;57.90;;;;;;4815604;29;20277;-89
2022/07/28 02:21:51;;;;;;;1.00;1.00;;;20.70;57.90;;;;;;4780111;30;20305;-91
2022/07/28 02:24:32;;;;;;;;;;;;;;;;;;;;;
2022/07/28 02:28:05;;;;;;;;;;;;;;;;;;;;;
2022/07/28 02:34:26;;;;;;;1.20;1.10;;;20.70;57.90;;;;;;4748856;30;20191;-89
2022/07/28 02:37:28;;;;;;;;;;;;;;;;;;;;;
2022/07/28 02:40:25;;;;;;;;;;;;;;;;;;;;;
2022/07/28 02:43:25;;;;;;;1.00;0.90;;;20.70;57.90;;;;;;4759556;30;20668;-89
2022/07/28 02:46:38;;;;;;;0.88;0.88;;;20.70;57.90;;;;;;4720228;30;20287;-89
2022/07/28 02:49:40;;;;;;;;;;;;;;;;;;;;;
2022/07/28 02:52:24;;;;;;;1.90;1.30;;;20.70;57.90;;;;;;4785315;29;20320;-90
2022/07/28 02:55:19;;;;;;;1.08;1.00;;;20.70;57.90;;;;;;4781032;29;20206;-89
2022/07/28 02:58:10;;;;;;;0.80;0.80;;;20.70;57.80;;;;;;4816743;29;20193;-89
2022/07/28 03:01:08;;;;;;;1.10;1.05;;;20.70;57.80;;;;;;4870694;29;20703;-90
2022/07/28 03:04:01;;;;;;;1.10;1.00;;;20.70;57.80;;;;;;4850693;29;20230;-89
2022/07/28 03:06:41;;;;;;;1.00;1.00;;;20.70;57.90;;;;;;4829186;29;20190;-89
2022/07/28 03:10:11;;;;;;;1.17;1.08;;;20.70;57.90;;;;;;4796394;30;20289;-89
2022/07/28 03:13:28;;;;;;;1.30;1.20;;;20.70;57.90;;;;;;4827847;29;20190;-89
2022/07/28 03:16:12;;;;;;;1.05;0.98;;;20.70;57.80;;;;;;4851666;29;20349;-89
2022/07/28 03:18:56;;;;;;;0.95;0.95;;;20.70;57.90;;;;;;4851762;29;20238;-89
2022/07/28 03:21:56;;;;;;;1.20;1.10;;;20.70;57.90;;;;;;4832634;29;20219;-90
2022/07/28 03:24:51;;;;;;;1.13;1.00;;;20.70;57.90;;;;;;4781530;30;20323;-90
2022/07/28 03:28:18;;;;;;;;;;;;;;;;;;;;;
2022/07/28 03:31:09;;;;;;;1.02;0.95;;;20.70;57.90;;;;;;4796913;30;20200;-92
2022/07/28 03:34:11;;;;;;;1.00;1.00;;;20.70;57.90;;;;;;4724945;30;20257;-89
2022/07/28 03:37:19;;;;;;;1.20;1.10;;;20.70;57.90;;;;;;4721801;30;20230;-89
2022/07/28 03:40:01;;;;;;;1.05;1.05;;;20.70;57.80;;;;;;4749463;30;20185;-89
2022/07/28 03:43:25;;;;;;;;;;;;;;;;;;;;;
2022/07/28 03:46:27;;;;;;;1.30;1.20;;;20.70;57.90;;;;;;4719182;30;20274;-89
2022/07/28 03:49:12;;;;;;;1.20;1.10;;;20.70;57.90;;;;;;4731127;30;20189;-90
2022/07/28 03:52:23;;;;;;;;;;;;;;;;;;;;;
2022/07/28 03:55:22;;;;;;;;;;;;;;;;;;;;;
2022/07/28 03:57:58;;;;;;;1.13;1.08;;;20.70;57.90;;;;;;4726110;30;20306;-90
2022/07/28 04:00:46;;;;;;;1.20;1.10;;;20.70;57.90;;;;;;4710204;30;20781;-89
2022/07/28 04:03:27;;;;;;;1.20;1.10;;;20.70;57.90;;;;;;4724524;30;20221;-89
2022/07/28 04:06:22;;;;;;;;;;;;;;;;;;;;;
2022/07/28 04:09:36;;;;;;;1.10;1.00;;;20.70;57.90;;;;;;4685649;30;20283;-91
2022/07/28 04:12:19;;;;;;;0.82;0.82;;;20.70;57.90;;;;;;4639954;30;20213;-90
2022/07/28 04:15:31;;;;;;;0.93;0.93;;;20.70;57.90;;;;;;4715754;30;20262;-90
2022/07/28 04:17:54;;;;;;;;;;;;;;;;;;;;;
2022/07/28 04:20:50;;;;;;;1.25;1.15;;;20.70;57.90;;;;;;4784750;30;20275;-89
2022/07/28 04:23:30;;;;;;;1.00;1.00;;;20.70;57.90;;;;;;4792314;29;20704;-90
2022/07/28 04:26:29;;;;;;;1.20;1.10;;;20.70;57.90;;;;;;4815409;29;20215;-90
2022/07/28 04:32:22;;;;;;;1.15;1.05;;;20.70;57.90;;;;;;4816757;29;20201;-90
2022/07/28 04:35:30;;;;;;;0.93;0.93;;;20.70;57.90;;;;;;4824014;29;20195;-90
2022/07/28 04:38:41;;;;;;;1.13;1.02;;;20.70;58.60;;;;;;4827061;29;20186;-90
2022/07/28 04:41:17;;;;;;;1.10;1.00;;;20.70;57.90;;;;;;4780848;30;20191;-89
2022/07/28 04:44:16;;;;;;;;;;;;;;;;;;;;;
2022/07/28 04:46:48;;;;;;;0.80;0.80;;;20.70;57.90;;;;;;4664823;30;20263;-89
2022/07/28 04:49:37;;;;;;;0.90;0.90;;;20.70;57.80;;;;;;4657608;30;20220;-89
2022/07/28 04:52:44;;;;;;;0.80;0.80;;;20.70;57.50;;;;;;4619864;30;20587;-89
2022/07/28 05:12:51;;;;;;;;;;;;;;;;;;;;;
2022/07/28 05:16:16;;;;;;;0.80;0.80;;;20.30;56.40;;;;;;4610879;31;20290;-89
2022/07/28 05:19:09;;;;;;;0.70;0.70;;;20.30;56.40;;;;;;4661219;30;20247;-89
2022/07/28 05:41:07;;;;;;;;;;;;;;;;;;;;;
2022/07/28 05:48:54;;;;;;;;;;;;;;;;;;;;;
2022/07/28 11:43:38;;;;;;;0.70;0.70;;;21.10;49.10;;;;;;5286997;23;20234;-88
2022/07/28 11:46:21;;;;;;;0.60;0.60;;;21.20;49.10;;;;;;4810560;29;20199;-89
2022/07/28 11:49:30;;;;;;;0.50;0.50;;;21.20;49.00;;;;;;4810421;29;20693;-89
2022/07/28 11:52:48;;;;;;;0.45;0.45;;;21.20;48.90;;;;;;4789241;29;20207;-88
2022/07/28 11:55:00;;;;;;;0.57;0.57;;;21.20;48.90;;;;;;4812228;29;20236;-88
2022/07/28 11:58:15;;;;;;;0.63;0.60;;;21.20;48.90;;;;;;4811778;29;20231;-89
2022/07/28 12:01:06;;;;;;;0.60;0.50;;;21.10;48.90;;;;;;4775631;30;20224;-89
2022/07/28 12:03:44;;;;;;;0.47;0.47;;;21.20;48.90;;;;;;4730882;30;20197;-89
2022/07/28 12:06:23;;;;;;;0.50;0.50;;;21.20;48.80;;;;;;4757086;30;20194;-89
2022/07/28 12:09:08;;;;;;;;;;;;;;;;;;;;;
2022/07/28 12:11:54;;;;;;;0.50;0.50;;;21.10;48.60;;;;;;4688198;30;20258;-89
2022/07/28 12:15:00;;;;;;;0.40;0.40;;;21.10;48.60;;;;;;4688076;30;20297;-89
2022/07/28 12:18:04;;;;;;;2.05;0.50;;;21.00;48.70;;;;;;4707545;30;20672;-88
2022/07/28 12:21:14;;;;;;;;;;;;;;;;;;;;;
2022/07/28 12:24:49;;;;;;;0.57;0.57;;;21.20;48.50;;;;;;4674125;30;20276;-89
2022/07/28 12:27:39;;;;;;;0.55;0.50;;;21.20;48.40;;;;;;4674015;30;20189;-88
2022/07/28 12:30:54;;;;;;;0.43;0.43;;;21.10;48.50;;;;;;4649723;30;20209;-88
2022/07/28 12:33:39;;;;;;;0.40;0.40;;;21.10;48.70;;;;;;4655873;30;20227;-88
2022/07/28 12:36:22;;;;;;;0.45;0.45;;;21.10;48.50;;;;;;4651993;30;20221;-90
2022/07/28 12:39:00;;;;;;;0.47;0.47;;;21.10;48.50;;;;;;4656861;30;20192;-89
2022/07/28 12:42:43;;;;;;;0.60;0.60;;;21.00;48.40;;;;;;4625567;31;20192;-88
2022/07/28 12:49:53;;;;;;;0.40;0.40;;;21.00;48.40;;;;;;4660576;30;20288;-91
2022/07/28 12:53:20;;;;;;;0.40;0.40;;;21.00;48.20;;;;;;4659882;30;20195;-89
2022/07/28 12:56:07;;;;;;;0.40;0.40;;;21.00;48.10;;;;;;4654688;30;20265;-88
2022/07/28 12:59:44;;;;;;;;;;;;;;;;;;;;;
2022/07/28 13:02:34;;;;;;;0.40;0.38;;;20.90;47.90;;;;;;4659109;30;20280;-88
2022/07/28 13:05:01;;;;;;;0.50;0.50;;;20.90;48.00;;;;;;4694589;30;20219;-89
2022/07/28 13:07:30;;;;;;;0.50;0.50;;;20.90;47.90;;;;;;4672329;30;20197;-87
2022/07/28 13:10:03;;;;;;;0.40;0.40;;;20.90;47.90;;;;;;4674388;30;20201;-87
2022/07/28 13:12:30;;;;;;;0.40;0.40;;;20.90;47.80;;;;;;4676426;30;20303;-87
2022/07/28 13:15:09;;;;;;;0.47;0.47;;;20.90;47.90;;;;;;4681848;30;20196;-88
2022/07/28 13:18:00;;;;;;;0.40;0.40;;;21.00;47.90;;;;;;4685633;30;20245;-88
2022/07/28 13:20:28;;;;;;;0.40;0.40;;;20.90;47.80;;;;;;4688808;30;20197;-88
2022/07/28 13:22:58;;;;;;;0.52;0.52;;;20.90;47.80;;;;;;4681129;30;20193;-88
2022/07/28 13:25:26;;;;;;;0.40;0.40;;;21.00;47.80;;;;;;4708918;30;20209;-88
2022/07/28 13:27:52;;;;;;;0.60;0.60;;;21.10;47.60;;;;;;4722936;30;20213;-88
2022/07/28 13:30:18;;;;;;;0.40;0.40;;;21.00;47.50;;;;;;4746786;30;20582;-88
2022/07/28 13:32:46;;;;;;;0.47;0.47;;;21.00;47.50;;;;;;4731519;30;20201;-88
2022/07/28 13:35:11;;;;;;;0.40;0.40;;;21.00;48.20;;;;;;4746405;30;20198;-89
2022/07/28 13:37:38;;;;;;;0.55;0.40;;;21.00;47.40;;;;;;4748052;30;20696;-89
2022/07/28 13:40:08;;;;;;;0.32;0.32;;;21.00;47.20;;;;;;4787494;29;20187;-88
2022/07/28 13:42:34;;;;;;;0.30;0.30;;;21.00;47.30;;;;;;4787773;29;20221;-88
2022/07/28 13:45:01;;;;;;;0.65;0.55;;;21.00;47.20;;;;;;4787358;29;20210;-88
2022/07/28 13:47:28;;;;;;;0.40;0.40;;;21.00;47.20;;;;;;4788053;29;20218;-88
2022/07/28 13:49:58;;;;;;;0.55;0.55;;;21.10;47.10;;;;;;4788696;29;20255;-88
2022/07/28 13:52:34;;;;;;;0.63;0.63;;;21.10;47.10;;;;;;4762811;30;20197;-89
2022/07/28 13:55:01;;;;;;;0.47;0.47;;;21.10;47.20;;;;;;4782991;30;20216;-88
2022/07/28 13:57:30;;;;;;;0.50;0.50;;;21.10;47.20;;;;;;4798987;30;20242;-88
2022/07/28 13:59:57;;;;;;;0.50;0.50;;;21.10;47.10;;;;;;4791358;30;20198;-86
2022/07/28 14:02:25;;;;;;;0.50;0.50;;;21.10;47.10;;;;;;4799190;30;20198;-88
2022/07/28 14:04:54;;;;;;;0.32;0.32;;;21.10;47.10;;;;;;4799240;30;20203;-88
2022/07/28 14:07:20;;;;;;;0.40;0.40;;;21.10;47.20;;;;;;4784012;30;20195;-88
2022/07/28 14:09:48;;;;;;;0.40;0.40;;;21.10;47.10;;;;;;4799154;30;20191;-88
2022/07/28 14:12:14;;;;;;;0.40;0.40;;;21.10;47.10;;;;;;4783456;30;20222;-89
2022/07/28 14:14:39;;;;;;;0.50;0.50;;;21.10;47.00;;;;;;4798803;30;20660;-89
2022/07/28 14:17:08;;;;;;;0.60;0.60;;;21.20;47.10;;;;;;4798257;30;20223;-90
2022/07/28 14:19:35;;;;;;;0.50;0.50;;;21.10;46.90;;;;;;4798669;30;20711;-89
2022/07/28 14:22:06;;;;;;;0.43;0.43;;;21.10;46.80;;;;;;4780674;30;20192;-88
2022/07/28 14:24:31;;;;;;;0.50;0.50;;;21.20;46.80;;;;;;4786715;29;20286;-88
2022/07/28 14:26:57;;;;;;;0.60;0.60;;;21.20;46.80;;;;;;4786521;29;20186;-88
2022/07/28 14:29:26;;;;;;;0.70;0.60;;;21.10;46.70;;;;;;4801902;29;20202;-88
2022/07/28 14:31:54;;;;;;;0.40;0.40;;;21.10;46.70;;;;;;4802873;29;20665;-88
2022/07/28 14:34:22;;;;;;;0.47;0.47;;;21.10;46.80;;;;;;4772402;29;20232;-88
2022/07/28 14:36:58;;;;;;;0.50;0.50;;;21.10;46.70;;;;;;4801499;29;20225;-89
2022/07/28 14:39:36;;;;;;;0.50;0.50;;;21.10;46.50;;;;;;4780531;30;20656;-88
2022/07/28 14:42:06;;;;;;;0.40;0.40;;;21.10;46.40;;;;;;4784732;30;20187;-88
2022/07/28 14:44:33;;;;;;;0.70;0.43;;;21.10;46.60;;;;;;4770393;30;20288;-88
2022/07/28 14:46:58;;;;;;;0.40;0.40;;;21.00;46.40;;;;;;4769526;30;20203;-88
2022/07/28 14:49:24;;;;;;;0.40;0.40;;;21.10;46.40;;;;;;4769360;30;20214;-89
2022/07/28 14:51:58;;;;;;;0.73;0.40;;;21.10;46.40;;;;;;4768149;30;20195;-89
2022/07/28 14:54:24;;;;;;;1.35;0.40;;;21.10;46.30;;;;;;4783938;30;20256;-88
2022/07/28 14:56:50;;;;;;;0.40;0.40;;;21.10;46.90;;;;;;4783608;30;20232;-89
2022/07/28 14:59:20;;;;;;;0.65;0.50;;;21.10;46.20;;;;;;4754400;30;20187;-88
2022/07/28 15:01:48;;;;;;;0.38;0.38;;;21.10;46.20;;;;;;4765379;30;20325;-88
2022/07/28 15:04:24;;;;;;;0.40;0.40;;;21.10;46.10;;;;;;4765496;30;20191;-88
2022/07/28 15:07:03;;;;;;;0.50;0.45;;;21.00;46.10;;;;;;4753892;30;20208;-88
2022/07/28 15:09:30;;;;;;;0.40;0.40;;;21.10;46.10;;;;;;4764145;29;20284;-88
2022/07/28 15:11:58;;;;;;;0.40;0.40;;;21.10;46.00;;;;;;4825545;29;20173;-87
2022/07/28 15:14:26;;;;;;;0.30;0.30;;;21.00;46.00;;;;;;4826595;29;20304;-87
2022/07/28 15:16:54;;;;;;;0.40;0.40;;;21.10;46.10;;;;;;4825550;29;20204;-88
2022/07/28 15:19:22;;;;;;;0.60;0.60;;;21.00;46.00;;;;;;4841265;29;20320;-89
2022/07/28 15:21:51;;;;;;;0.43;0.43;;;21.10;46.10;;;;;;4826388;29;20175;-88
2022/07/28 15:24:29;;;;;;;0.40;0.40;;;21.10;46.00;;;;;;4840564;29;20240;-89
2022/07/28 15:26:56;;;;;;;0.50;0.50;;;21.10;46.10;;;;;;4840286;29;20211;-89
2022/07/28 15:29:27;;;;;;;0.40;0.40;;;21.00;46.10;;;;;;4825876;29;20172;-89
2022/07/28 15:31:57;;;;;;;0.40;0.40;;;21.00;46.10;;;;;;4825985;29;20185;-88
2022/07/28 15:34:22;;;;;;;0.40;0.40;;;21.00;46.10;;;;;;4826352;29;20175;-89
2022/07/28 15:36:48;;;;;;;0.40;0.40;;;21.00;46.00;;;;;;4825855;29;20196;-87
2022/07/28 15:39:21;;;;;;;0.40;0.40;;;21.10;46.00;;;;;;4847850;29;20193;-88
2022/07/28 15:41:50;;;;;;;0.50;0.50;;;21.00;46.00;;;;;;4840963;29;20181;-88
2022/07/28 15:44:17;;;;;;;0.40;0.40;;;21.00;46.00;;;;;;4855904;29;20250;-88
2022/07/28 15:46:43;;;;;;;0.55;0.55;;;20.90;46.00;;;;;;4841219;29;20206;-88
2022/07/28 15:49:10;;;;;;;1.30;0.60;;;21.00;46.00;;;;;;4855734;29;20212;-89
2022/07/28 15:51:38;;;;;;;0.40;0.40;;;21.00;46.00;;;;;;4855529;29;20232;-89
2022/07/28 15:54:08;;;;;;;0.50;0.50;;;20.90;46.00;;;;;;4839764;29;20699;-88
2022/07/28 15:56:35;;;;;;;0.40;0.40;;;20.90;46.00;;;;;;4841269;29;20212;-88
2022/07/28 15:59:06;;;;;;;0.35;0.30;;;20.90;46.00;;;;;;4840867;29;20192;-88
2022/07/28 16:01:38;;;;;;;0.38;0.38;;;20.90;45.90;;;;;;4834733;29;20212;-88
2022/07/28 16:04:05;;;;;;;0.40;0.40;;;21.00;45.90;;;;;;4833922;29;20197;-88
2022/07/28 16:09:13;;;;;;;0.30;0.30;;;20.90;45.90;;;;;;4848051;29;20166;-88
2022/07/28 16:11:42;;;;;;;0.40;0.40;;;20.90;46.10;;;;;;4834053;29;20695;-88
2022/07/28 16:14:10;;;;;;;0.40;0.40;;;20.90;46.00;;;;;;4834514;29;20182;-88
2022/07/28 16:16:42;;;;;;;0.30;0.30;;;20.90;46.00;;;;;;4818505;29;20249;-89
2022/07/28 16:19:12;;;;;;;0.40;0.40;;;20.90;46.10;;;;;;4822042;29;20195;-90
2022/07/28 16:21:41;;;;;;;0.30;0.30;;;20.90;46.20;;;;;;4838189;29;20277;-89
2022/07/28 16:24:09;;;;;;;0.40;0.40;;;20.90;46.10;;;;;;4837686;29;20266;-89
2022/07/28 16:26:36;;;;;;;0.20;0.20;;;20.90;46.10;;;;;;4837758;29;20330;-88
2022/07/28 16:29:02;;;;;;;0.50;0.50;;;20.90;46.10;;;;;;4837574;29;20210;-88
2022/07/28 16:31:34;;;;;;;0.50;0.50;;;20.90;46.10;;;;;;4841181;29;20257;-88
2022/07/28 16:34:04;;;;;;;0.40;0.40;;;20.90;46.10;;;;;;4838373;29;20228;-89
2022/07/28 16:36:41;;;;;;;0.22;0.22;;;20.90;46.10;;;;;;4837463;29;20560;-88
2022/07/28 16:39:08;;;;;;;0.43;0.43;;;20.90;46.30;;;;;;4836404;29;20181;-89
2022/07/28 16:41:36;;;;;;;0.50;0.50;;;20.90;46.30;;;;;;4834015;29;20187;-88
2022/07/28 16:44:04;;;;;;;0.40;0.40;;;20.90;46.40;;;;;;4804616;29;20313;-89
2022/07/28 16:46:39;;;;;;;0.47;0.43;;;20.90;46.40;;;;;;4803728;29;20201;-89
2022/07/28 16:49:09;;;;;;;0.50;0.50;;;20.90;46.40;;;;;;4804522;29;20194;-88
2022/07/28 16:51:36;;;;;;;0.47;0.47;;;20.90;46.50;;;;;;4819480;29;20270;-88
2022/07/28 16:54:09;;;;;;;0.30;0.30;;;20.90;46.50;;;;;;4803840;29;20197;-89
2022/07/28 16:56:37;;;;;;;0.47;0.40;;;20.80;46.50;;;;;;4804091;29;20278;-88
2022/07/28 16:59:28;;;;;;;0.30;0.30;;;20.90;46.40;;;;;;4804140;29;20277;-89
2022/07/28 17:01:59;;;;;;;0.50;0.50;;;20.90;46.40;;;;;;4817578;29;20655;-89
2022/07/28 17:04:25;;;;;;;0.50;0.50;;;20.90;46.40;;;;;;4803665;29;20193;-88
2022/07/28 17:06:53;;;;;;;0.40;0.40;;;20.90;46.40;;;;;;4804015;29;20195;-89
2022/07/28 17:09:23;;;;;;;0.40;0.40;;;20.90;46.40;;;;;;4818116;29;20217;-89
2022/07/28 17:11:49;;;;;;;0.38;0.38;;;20.90;46.40;;;;;;4792270;29;20288;-89
2022/07/28 17:14:21;;;;;;;0.40;0.40;;;20.80;46.40;;;;;;4836685;29;20221;-88
2022/07/28 17:16:50;;;;;;;0.30;0.30;;;20.90;46.30;;;;;;4836330;29;20254;-88
2022/07/28 17:19:20;;;;;;;0.35;0.35;;;20.90;46.30;;;;;;4807000;29;20691;-88
2022/07/28 17:21:50;;;;;;;0.47;0.47;;;20.80;46.20;;;;;;4804088;29;20186;-88
2022/07/28 17:24:21;;;;;;;0.40;0.40;;;20.90;46.30;;;;;;4771089;30;20187;-88
2022/07/28 17:26:47;;;;;;;0.50;0.50;;;20.90;46.30;;;;;;4770925;30;20195;-89
2022/07/28 17:29:21;;;;;;;0.40;0.40;;;20.90;46.20;;;;;;4784356;30;20191;-89
2022/07/28 17:31:53;;;;;;;0.45;0.45;;;20.90;46.20;;;;;;4769711;30;20263;-88
2022/07/28 17:34:25;;;;;;;0.30;0.30;;;20.90;46.30;;;;;;4770687;30;20187;-88
2022/07/28 17:36:54;;;;;;;0.40;0.40;;;20.90;46.30;;;;;;4783850;30;20219;-88
2022/07/28 17:39:20;;;;;;;0.40;0.40;;;20.90;46.40;;;;;;4781961;30;20226;-88
2022/07/28 17:41:51;;;;;;;0.40;0.40;;;20.90;46.40;;;;;;4768664;30;20194;-89
2022/07/28 17:44:17;;;;;;;0.40;0.40;;;20.90;46.50;;;;;;4783994;29;20691;-88
2022/07/28 17:46:45;;;;;;;0.50;0.50;;;20.90;46.40;;;;;;4766907;30;20196;-88
2022/07/28 17:49:14;;;;;;;0.30;0.30;;;20.90;46.50;;;;;;4738329;30;20198;-88
2022/07/28 17:51:40;;;;;;;0.30;0.30;;;20.90;46.50;;;;;;4738181;30;20195;-89
2022/07/28 17:54:07;;;;;;;0.50;0.50;;;20.90;46.50;;;;;;4771303;29;20722;-88
2022/07/28 17:56:38;;;;;;;0.30;0.30;;;20.90;46.60;;;;;;4834127;29;20559;-88
2022/07/28 17:59:05;;;;;;;0.30;0.30;;;20.80;46.60;;;;;;4836571;29;20166;-88
2022/07/28 18:01:33;;;;;;;0.30;0.30;;;20.80;46.60;;;;;;4821193;29;20190;-88
2022/07/28 18:04:06;;;;;;;0.40;0.40;;;20.80;46.70;;;;;;4820902;29;20205;-88
2022/07/28 18:06:39;;;;;;;0.40;0.40;;;20.80;46.60;;;;;;4821209;29;20190;-88
2022/07/28 18:09:14;;;;;;;0.40;0.40;;;20.80;46.70;;;;;;4820713;29;20185;-89
2022/07/28 18:11:40;;;;;;;0.40;0.40;;;20.70;46.60;;;;;;4820991;29;20229;-88
2022/07/28 18:14:07;;;;;;;0.45;0.45;;;20.80;46.70;;;;;;4820831;29;20178;-89
2022/07/28 18:16:33;;;;;;;1.10;0.70;;;20.80;47.10;;;;;;4823026;29;20201;-89
2022/07/28 18:19:01;;;;;;;0.70;0.60;;;20.70;47.60;;;;;;4838769;29;20185;-89
2022/07/28 18:21:27;;;;;;;0.75;0.50;;;20.70;48.70;;;;;;4808443;29;20201;-88
2022/07/28 18:24:05;;;;;;;0.65;0.63;;;20.80;49.30;;;;;;4809152;29;20189;-88
2022/07/28 18:26:31;;;;;;;1.38;0.60;;;20.70;49.80;;;;;;4785519;30;20230;-87
2022/07/28 18:28:59;;;;;;;0.68;0.60;;;20.70;50.20;;;;;;4784852;30;20191;-88
2022/07/28 18:31:36;;;;;;;0.80;0.68;;;20.70;50.50;;;;;;4799617;30;20191;-88
2022/07/28 18:34:11;;;;;;;0.40;0.40;;;20.60;51.10;;;;;;4799237;30;20268;-88
2022/07/28 18:36:38;;;;;;;0.50;0.50;;;20.70;51.20;;;;;;4799336;30;20276;-88
2022/07/28 18:39:12;;;;;;;0.60;0.60;;;20.60;51.80;;;;;;4766415;30;20195;-88
2022/07/28 18:41:45;;;;;;;0.50;0.40;;;20.60;52.20;;;;;;4763225;30;20192;-88
2022/07/28 18:44:10;;;;;;;0.50;0.50;;;20.70;52.60;;;;;;4733800;30;20257;-88
2022/07/28 18:46:43;;;;;;;0.45;0.45;;;20.60;52.60;;;;;;4748748;30;20220;-88
2022/07/28 18:49:10;;;;;;;0.63;0.43;;;20.60;52.70;;;;;;4733645;30;20327;-88
2022/07/28 18:51:39;;;;;;;0.65;0.40;;;20.50;52.60;;;;;;4748329;30;20189;-88
2022/07/28 18:54:05;;;;;;;0.90;0.50;;;20.50;53.20;;;;;;4745039;30;20295;-88
2022/07/28 18:56:37;;;;;;;0.40;0.40;;;20.50;53.50;;;;;;4755102;30;20244;-89
2022/07/28 18:59:05;;;;;;;0.60;0.55;;;20.50;53.30;;;;;;4798827;30;20263;-88
2022/07/28 19:01:33;;;;;;;0.40;0.40;;;20.50;53.70;;;;;;4783895;30;20824;-88
2022/07/28 19:04:00;;;;;;;0.50;0.50;;;20.50;53.70;;;;;;4798286;30;20218;-88
2022/07/28 19:06:28;;;;;;;0.50;0.47;;;20.50;54.00;;;;;;4802107;29;20217;-88
2022/07/28 19:08:55;;;;;;;0.43;0.43;;;20.50;54.10;;;;;;4799134;29;20710;-88
2022/07/28 19:11:22;;;;;;;0.50;0.50;;;20.40;54.30;;;;;;4820064;29;20239;-88
2022/07/28 19:13:53;;;;;;;0.43;0.40;;;20.40;54.40;;;;;;4820091;29;20223;-88
2022/07/28 19:16:21;;;;;;;0.50;0.50;;;20.40;54.40;;;;;;4819316;29;20201;-88
2022/07/28 19:18:51;;;;;;;0.40;0.40;;;20.40;54.60;;;;;;4819812;29;20272;-88
2022/07/28 19:21:24;;;;;;;0.40;0.40;;;20.40;54.80;;;;;;4801446;29;20187;-88
2022/07/28 19:23:51;;;;;;;0.52;0.52;;;20.40;54.80;;;;;;4799760;29;20236;-88
2022/07/28 19:26:18;;;;;;;0.40;0.40;;;20.40;54.90;;;;;;4801754;29;20194;-89
2022/07/28 19:28:45;;;;;;;0.40;0.40;;;20.30;54.90;;;;;;4817172;29;20213;-88
2022/07/28 19:31:15;;;;;;;0.40;0.40;;;20.30;54.80;;;;;;4814804;29;20189;-88
2022/07/28 19:33:42;;;;;;;0.45;0.40;;;20.40;55.00;;;;;;4837786;29;20250;-88
2022/07/28 19:36:09;;;;;;;0.70;0.60;;;20.30;55.00;;;;;;4838241;29;20667;-88
2022/07/28 19:38:35;;;;;;;0.50;0.50;;;20.30;55.20;;;;;;4822348;29;20374;-88
2022/07/28 19:41:02;;;;;;;0.40;0.30;;;20.30;55.10;;;;;;4855965;29;20204;-88
2022/07/28 19:43:32;;;;;;;0.57;0.40;;;20.30;55.30;;;;;;4821610;29;20300;-88
2022/07/28 19:46:06;;;;;;;0.47;0.47;;;20.30;55.30;;;;;;4807683;29;20187;-88
2022/07/28 19:48:38;;;;;;;0.35;0.35;;;20.30;55.50;;;;;;4797742;30;20292;-88
2022/07/28 19:51:05;;;;;;;1.08;0.60;;;20.30;55.50;;;;;;4782848;29;20325;-88
2022/07/28 19:53:33;;;;;;;0.40;0.40;;;20.30;55.50;;;;;;4787307;30;20276;-88
2022/07/28 19:56:03;;;;;;;0.50;0.40;;;20.30;55.50;;;;;;4786795;30;20222;-88
2022/07/28 19:58:38;;;;;;;0.60;0.57;;;20.30;55.60;;;;;;4787408;30;20198;-89
2022/07/28 20:01:06;;;;;;;0.40;0.40;;;20.30;55.70;;;;;;4787708;30;20190;-88
2022/07/28 20:03:34;;;;;;;0.40;0.40;;;20.20;55.70;;;;;;4768567;30;20315;-89
2022/07/28 20:06:04;;;;;;;0.60;0.52;;;20.20;55.90;;;;;;4783992;30;20196;-89
2022/07/28 20:08:36;;;;;;;0.55;0.55;;;20.30;56.10;;;;;;4784304;30;20192;-89
2022/07/28 20:11:07;;;;;;;0.60;0.43;;;20.20;56.10;;;;;;4783423;30;20230;-88
2022/07/28 20:13:33;;;;;;;0.47;0.45;;;20.20;56.30;;;;;;4800102;29;20357;-88
2022/07/28 20:16:00;;;;;;;0.68;0.60;;;20.20;56.30;;;;;;4804605;29;20718;-88
2022/07/28 20:18:26;;;;;;;0.60;0.60;;;20.20;56.40;;;;;;4804612;29;20285;-88
2022/07/28 20:20:51;;;;;;;0.47;0.47;;;20.10;56.40;;;;;;4805521;29;20167;-88
2022/07/28 20:23:23;;;;;;;0.40;0.40;;;20.20;56.40;;;;;;4805033;29;20247;-88
2022/07/28 20:25:51;;;;;;;0.45;0.45;;;20.10;56.40;;;;;;4801985;30;20192;-88
2022/07/28 20:28:17;;;;;;;0.40;0.40;;;20.10;56.50;;;;;;4803932;29;20191;-88
2022/07/28 20:30:44;;;;;;;0.38;0.38;;;20.10;56.60;;;;;;4805198;29;20201;-88
2022/07/28 20:33:10;;;;;;;0.80;0.55;;;20.10;56.70;;;;;;4805019;29;20265;-88
2022/07/28 20:35:38;;;;;;;0.50;0.50;;;20.10;56.80;;;;;;4804475;29;20225;-88
2022/07/28 20:38:07;;;;;;;0.50;0.50;;;20.10;56.90;;;;;;4804135;29;20690;-88
2022/07/28 20:40:34;;;;;;;0.43;0.40;;;20.10;56.80;;;;;;4804544;29;20650;-88
2022/07/28 20:43:02;;;;;;;0.50;0.50;;;20.10;56.70;;;;;;4805396;29;20175;-88
2022/07/28 20:45:30;;;;;;;0.60;0.60;;;20.20;56.70;;;;;;4822558;29;20189;-88
2022/07/28 20:47:56;;;;;;;0.50;0.50;;;20.20;56.60;;;;;;4807326;29;20250;-88
2022/07/28 20:50:28;;;;;;;0.55;0.55;;;20.20;56.50;;;;;;4822502;29;20170;-89
2022/07/28 20:52:58;;;;;;;0.50;0.50;;;20.20;56.40;;;;;;4806966;29;20178;-88
2022/07/28 20:55:26;;;;;;;0.55;0.55;;;20.30;56.30;;;;;;4800546;29;20195;-88
2022/07/28 20:58:06;;;;;;;0.60;0.60;;;20.30;56.20;;;;;;4771631;30;20254;-88
2022/07/28 21:00:34;;;;;;;0.55;0.55;;;20.30;56.00;;;;;;4770910;30;20191;-88
2022/07/28 21:03:00;;;;;;;0.50;0.50;;;20.30;56.00;;;;;;4771610;30;20277;-88
2022/07/28 21:05:28;;;;;;;0.60;0.60;;;20.40;55.90;;;;;;4771454;30;20184;-88
2022/07/28 21:07:54;;;;;;;0.50;0.50;;;20.40;55.80;;;;;;4771107;30;20209;-88
2022/07/28 21:10:24;;;;;;;0.60;0.60;;;20.40;55.80;;;;;;4770960;30;20187;-88
2022/07/28 21:12:54;;;;;;;0.50;0.50;;;20.40;55.70;;;;;;4770798;30;20187;-88
2022/07/28 21:15:23;;;;;;;0.50;0.50;;;20.40;55.70;;;;;;4771252;30;20365;-88
2022/07/28 21:17:54;;;;;;;0.73;0.73;;;20.50;55.70;;;;;;4750334;30;20240;-89
2022/07/28 21:20:26;;;;;;;0.63;0.60;;;20.50;55.60;;;;;;4719324;30;20200;-88
2022/07/28 21:22:53;;;;;;;0.60;0.60;;;20.50;55.60;;;;;;4732778;30;20205;-88
2022/07/28 21:25:22;;;;;;;0.65;0.60;;;20.50;55.60;;;;;;4718036;30;20208;-89